Portada
METAR-TAF:

METAR-TAF

Aeroports :

Toyama, Japó

latitud: 36-39N, longitud: 137-11E, altitud: 24 m

Observació

L'informe es va fer fa 50 minuts, a les 23:00 UTC
Vent 2 kt amb direcció variable
Temperatura 9°C
Humitat 87%
Pressió 1024 hPa
Visibilitat 10 km o més
Escasses núvols a una alçada de 3000 ft
Núvols disperses a una alçada de 8000 ft
Cel ennuvolat

METAR: RJNT 242300Z VRB02KT 9999 FEW030 SCT080 BKN/// 09/07 Q1024

Hora: 08:50 (23:50 UTC)

Pronòstic

L'informe es va fer fa 44 minuts, a les 23:06 UTC
Pronòstic vàlid del 25 a les 00 UTC al 26 a les 06 UTC
Vent 5 kt del Nord
Visibilitat 10 km o més
Escasses núvols a una alçada de 3000 ft
Núvols disperses a una alçada de 8000 ft
Evolucionant progressivament
l' 25 a les 07 UTC al 25 a les 09 UTC
Vent 5 kt del Sud
Evolucionant progressivament
l' 26 a les 00 UTC al 26 a les 03 UTC
Vent 6 kt del Nord

TAF: RJNT 242306Z 2500/2606 36005KT 9999 FEW030 SCT080 BECMG 2507/2509 19005KT BECMG 2600/2603 35006KT

Observacions i pronòstics meteorològics de més de 4000 aeroports (METAR i TAF).

Les estacions disponibles són els punts grocs i vermells al mapa.

Posi el ratolí al punt desitjat per veure el nom de l'estació.

Feu clic per veure les observacions i els pronòstics meteorològics.

Per canviar el mapa: feu clic els botons verds amb una creu de color negre per apropar; al botó verd amb un guió per allunyar la imatge; o en les fletxes verdes per a mapes adjacents.


METAR-TAF: